Time;durP1;ratioP1;P1;durP2;ratioP2;P2;SDS_P1;SDS_P2;PMS_P1;PMS_P2;Temp;Humidity;BMP_temperature;BMP_pressure;BME280_temperature;BME280_humidity;BME280_pressure;Samples;Min_cycle;Max_cycle;Signal;HPM_P1;HPM_P2
2023/05/14 00:00:11;;;;;;;0.43;0.43;;;14.90;99.90;;;;;;7404857;19;19922;-76
2023/05/14 00:02:40;;;;;;;0.00;0.00;;;15.20;99.90;;;;;;7403322;19;19997;-78
2023/05/14 00:05:10;;;;;;;0.00;0.00;;;15.20;99.90;;;;;;7404964;19;19942;-79
2023/05/14 00:07:39;;;;;;;0.00;0.00;;;15.00;99.90;;;;;;7405880;19;19919;-77
2023/05/14 00:10:12;;;;;;;0.00;0.00;;;15.20;99.90;;;;;;7405038;19;19951;-77
2023/05/14 00:12:41;;;;;;;0.20;0.20;;;15.10;99.90;;;;;;7402313;19;19947;-77
2023/05/14 00:15:11;;;;;;;0.40;0.40;;;14.90;99.90;;;;;;7405351;19;19922;-78
2023/05/14 00:17:41;;;;;;;0.00;0.00;;;14.90;99.90;;;;;;7403730;19;19921;-78
2023/05/14 00:20:11;;;;;;;0.20;0.17;;;14.90;99.90;;;;;;7405799;19;19963;-78
2023/05/14 00:22:40;;;;;;;0.00;0.00;;;14.90;99.90;;;;;;7403318;19;20348;-77
2023/05/14 00:25:12;;;;;;;0.00;0.00;;;14.70;99.90;;;;;;7403047;19;19911;-78
2023/05/14 00:27:41;;;;;;;;;;;14.70;99.90;;;;;;7405287;19;19974;-77
2023/05/14 00:30:10;;;;;;;0.10;0.10;;;14.80;99.90;;;;;;7402156;19;19927;-77
2023/05/14 00:32:42;;;;;;;0.00;0.00;;;14.60;99.90;;;;;;7402766;19;19914;-78
2023/05/14 00:35:11;;;;;;;1.58;0.40;;;14.70;99.90;;;;;;7403761;19;19994;-78
2023/05/14 00:37:41;;;;;;;0.73;0.68;;;14.70;99.90;;;;;;7405136;19;20257;-77
2023/05/14 00:40:14;;;;;;;1.30;0.85;;;14.50;99.90;;;;;;7403537;19;19915;-78
2023/05/14 00:42:43;;;;;;;2.08;1.95;;;14.60;99.90;;;;;;7402682;19;19918;-78
2023/05/14 00:45:13;;;;;;;0.20;0.20;;;14.50;99.90;;;;;;7403724;19;19920;-77
2023/05/14 00:47:42;;;;;;;0.17;0.17;;;14.40;99.90;;;;;;7404874;19;19922;-78
2023/05/14 00:50:12;;;;;;;0.10;0.10;;;14.30;99.90;;;;;;7403643;19;19982;-77
2023/05/14 00:52:42;;;;;;;1.35;0.35;;;14.40;99.90;;;;;;7400762;19;20298;-78
2023/05/14 00:55:17;;;;;;;0.35;0.35;;;14.40;99.90;;;;;;7403536;19;19919;-78
2023/05/14 00:57:46;;;;;;;0.00;0.00;;;14.30;99.90;;;;;;7402877;19;19922;-78
2023/05/14 01:00:16;;;;;;;0.40;0.40;;;14.40;99.90;;;;;;7403600;19;19930;-77
2023/05/14 01:02:45;;;;;;;0.00;0.00;;;14.40;99.90;;;;;;7402360;19;19915;-77
2023/05/14 01:05:14;;;;;;;0.17;0.17;;;14.30;99.90;;;;;;7403904;19;19930;-77
2023/05/14 01:07:52;;;;;;;0.10;0.10;;;14.40;99.90;;;;;;7402421;19;19991;-77
2023/05/14 01:10:30;;;;;;;0.85;0.75;;;14.40;99.90;;;;;;7404092;19;19915;-77
2023/05/14 01:13:07;;;;;;;0.70;0.70;;;14.20;99.90;;;;;;7400425;19;20015;-78
2023/05/14 01:15:37;;;;;;;0.65;0.65;;;14.30;99.90;;;;;;7404298;19;20278;-78
2023/05/14 01:18:10;;;;;;;0.20;0.20;;;14.20;99.90;;;;;;7403466;19;19925;-78
2023/05/14 01:20:39;;;;;;;0.00;0.00;;;14.20;99.90;;;;;;7401033;19;19977;-78
2023/05/14 01:23:10;;;;;;;1.17;1.02;;;14.10;99.90;;;;;;7403449;19;19986;-79
2023/05/14 01:25:39;;;;;;;0.00;0.00;;;14.20;99.90;;;;;;7402052;19;20283;-77
2023/05/14 01:28:16;;;;;;;0.08;0.08;;;14.00;99.90;;;;;;7402005;19;19966;-77
2023/05/14 01:30:49;;;;;;;0.17;0.17;;;14.10;99.90;;;;;;7401645;19;20257;-77
2023/05/14 01:33:21;;;;;;;0.00;0.00;;;16.00;99.90;;;;;;7401000;19;19922;-77
2023/05/14 01:35:52;;;;;;;0.00;0.00;;;14.00;99.90;;;;;;7402217;19;20320;-77
2023/05/14 01:38:24;;;;;;;1.00;0.55;;;14.10;99.90;;;;;;7401682;19;20272;-77
2023/05/14 01:40:55;;;;;;;0.25;0.10;;;14.00;99.90;;;;;;7400435;19;19936;-77
2023/05/14 01:43:24;;;;;;;0.10;0.10;;;13.80;99.90;;;;;;7399496;19;20323;-78
2023/05/14 01:45:54;;;;;;;0.00;0.00;;;13.80;99.90;;;;;;7403054;19;20275;-78
2023/05/14 01:48:23;;;;;;;0.88;0.75;;;13.80;99.90;;;;;;7401165;19;19947;-78
2023/05/14 01:50:52;;;;;;;0.60;0.60;;;13.90;99.90;;;;;;7402867;19;19942;-77
2023/05/14 01:53:23;;;;;;;0.05;0.05;;;13.70;99.90;;;;;;7399690;19;20003;-78
2023/05/14 01:55:53;;;;;;;0.57;0.32;;;13.90;99.90;;;;;;7399937;19;20400;-77
2023/05/14 01:58:22;;;;;;;0.00;0.00;;;13.80;99.90;;;;;;7400858;19;19915;-77
2023/05/14 02:00:51;;;;;;;0.30;0.30;;;13.90;99.90;;;;;;7399877;19;19919;-78
2023/05/14 02:03:20;;;;;;;0.00;0.00;;;13.80;99.90;;;;;;7401783;19;20009;-78
2023/05/14 02:05:49;;;;;;;0.00;0.00;;;13.70;99.90;;;;;;7401894;19;19925;-78
2023/05/14 02:08:18;;;;;;;0.10;0.00;;;13.70;99.90;;;;;;7401751;19;19974;-78
2023/05/14 02:10:50;;;;;;;0.00;0.00;;;13.60;99.90;;;;;;7400805;19;19918;-78
2023/05/14 02:13:19;;;;;;;0.38;0.35;;;14.00;99.90;;;;;;7398512;19;19938;-78
2023/05/14 02:15:48;;;;;;;0.60;0.60;;;13.60;99.90;;;;;;7400188;19;20274;-79
2023/05/14 02:18:17;;;;;;;0.00;0.00;;;13.40;99.90;;;;;;7401365;19;20416;-78
2023/05/14 02:20:46;;;;;;;0.25;0.25;;;13.60;99.90;;;;;;7400421;19;19918;-77
2023/05/14 02:23:15;;;;;;;0.00;0.00;;;13.60;99.90;;;;;;7401967;19;20016;-78
2023/05/14 02:25:43;;;;;;;0.08;0.08;;;13.50;99.90;;;;;;7399910;19;19928;-77
2023/05/14 02:28:15;;;;;;;0.05;0.05;;;13.50;99.90;;;;;;7399817;19;19935;-78
2023/05/14 02:30:44;;;;;;;0.00;0.00;;;13.30;99.90;;;;;;7399866;19;19915;-78
2023/05/14 02:33:13;;;;;;;0.00;0.00;;;13.30;99.90;;;;;;7396571;19;19911;-78
2023/05/14 02:35:42;;;;;;;0.50;0.50;;;13.40;99.90;;;;;;7400230;19;20263;-78
2023/05/14 02:38:11;;;;;;;0.60;0.20;;;13.20;99.90;;;;;;7399192;19;20375;-78
2023/05/14 02:40:40;;;;;;;0.75;0.15;;;13.30;99.90;;;;;;7400740;19;19984;-78
2023/05/14 02:43:08;;;;;;;0.00;0.00;;;13.20;99.90;;;;;;7397762;19;19918;-78
2023/05/14 02:45:40;;;;;;;0.50;0.10;;;13.10;99.90;;;;;;7399982;19;19919;-78
2023/05/14 02:48:09;;;;;;;0.20;0.10;;;13.30;99.90;;;;;;7399339;19;20439;-78
2023/05/14 02:50:38;;;;;;;0.30;0.30;;;13.10;99.90;;;;;;7400335;19;19919;-78
2023/05/14 02:53:07;;;;;;;0.00;0.00;;;13.20;99.90;;;;;;7402083;19;19922;-78
2023/05/14 02:55:36;;;;;;;0.00;0.00;;;13.10;99.90;;;;;;7407535;19;19922;-78
2023/05/14 02:58:06;;;;;;;0.15;0.15;;;13.10;99.90;;;;;;7406038;19;19920;-79
2023/05/14 03:00:35;;;;;;;0.00;0.00;;;13.20;99.90;;;;;;7407490;19;19927;-78
2023/05/14 03:03:07;;;;;;;0.00;0.00;;;13.10;99.90;;;;;;7406338;19;19974;-78
2023/05/14 03:05:35;;;;;;;0.10;0.10;;;13.00;99.90;;;;;;7407630;19;20379;-78
2023/05/14 03:08:05;;;;;;;0.00;0.00;;;12.90;99.90;;;;;;7406574;19;19919;-78
2023/05/14 03:10:34;;;;;;;0.90;0.90;;;13.00;99.90;;;;;;7405036;19;20405;-78
2023/05/14 03:13:03;;;;;;;0.00;0.00;;;13.10;99.90;;;;;;7403905;19;19990;-78
2023/05/14 03:15:32;;;;;;;0.00;0.00;;;12.90;99.90;;;;;;7405548;19;19914;-78
2023/05/14 03:18:01;;;;;;;0.00;0.00;;;12.90;99.90;;;;;;7407348;19;20019;-78
2023/05/14 03:20:32;;;;;;;0.43;0.43;;;13.00;99.90;;;;;;7405988;19;19922;-78
2023/05/14 03:23:01;;;;;;;0.57;0.57;;;12.90;99.90;;;;;;7406811;19;19935;-78
2023/05/14 03:25:30;;;;;;;0.05;0.05;;;12.80;99.90;;;;;;7406607;19;19919;-78
2023/05/14 03:27:59;;;;;;;0.00;0.00;;;12.80;99.90;;;;;;7405880;19;19978;-78
2023/05/14 03:30:28;;;;;;;0.00;0.00;;;12.90;99.90;;;;;;7405908;19;19940;-78
2023/05/14 03:32:57;;;;;;;1.02;0.43;;;12.70;99.90;;;;;;7405718;19;20340;-79
2023/05/14 03:35:26;;;;;;;1.35;0.45;;;12.50;99.90;;;;;;7406255;19;19918;-78
2023/05/14 03:37:58;;;;;;;0.03;0.03;;;12.70;99.90;;;;;;7409113;19;19925;-77
2023/05/14 03:40:27;;;;;;;0.00;0.00;;;12.70;99.90;;;;;;7407942;19;19914;-77
2023/05/14 03:42:56;;;;;;;0.65;0.65;;;12.80;99.90;;;;;;7403229;19;19925;-78
2023/05/14 03:45:25;;;;;;;0.28;0.28;;;12.60;99.90;;;;;;7405802;19;19919;-76
2023/05/14 03:47:54;;;;;;;1.02;0.45;;;12.70;99.90;;;;;;7405227;19;19967;-78
2023/05/14 03:50:24;;;;;;;0.35;0.35;;;12.70;99.90;;;;;;7404946;19;19918;-77
2023/05/14 03:52:54;;;;;;;0.10;0.10;;;12.70;99.90;;;;;;7403193;19;19933;-77
2023/05/14 03:55:25;;;;;;;1.17;0.17;;;12.60;99.90;;;;;;7405945;19;19938;-77
2023/05/14 03:57:54;;;;;;;0.00;0.00;;;12.50;99.90;;;;;;7404235;19;19929;-77
2023/05/14 04:00:24;;;;;;;0.00;0.00;;;12.70;99.90;;;;;;7405729;19;20003;-78
2023/05/14 04:02:53;;;;;;;0.05;0.05;;;12.60;99.90;;;;;;7404610;19;20036;-78
2023/05/14 04:05:22;;;;;;;0.00;0.00;;;12.70;99.90;;;;;;7404473;19;19997;-78
2023/05/14 04:07:51;;;;;;;0.10;0.10;;;12.60;99.90;;;;;;7404582;19;19918;-79
2023/05/14 04:10:20;;;;;;;0.20;0.20;;;12.60;99.90;;;;;;7405850;19;20364;-78
2023/05/14 04:12:52;;;;;;;0.00;0.00;;;12.60;99.90;;;;;;7402943;19;19925;-78
2023/05/14 04:15:21;;;;;;;0.10;0.10;;;12.50;99.90;;;;;;7402675;19;19925;-77
2023/05/14 04:17:49;;;;;;;0.00;0.00;;;12.50;99.90;;;;;;7404488;19;20328;-78
2023/05/14 04:20:19;;;;;;;0.00;0.00;;;12.50;99.90;;;;;;7403010;19;19926;-76
2023/05/14 04:22:48;;;;;;;0.88;0.80;;;12.40;99.90;;;;;;7404601;19;19936;-76
2023/05/14 04:25:17;;;;;;;0.00;0.00;;;12.50;99.90;;;;;;7404305;19;19977;-76
2023/05/14 04:27:46;;;;;;;3.55;0.85;;;12.60;99.90;;;;;;7403418;19;19919;-76
2023/05/14 04:30:18;;;;;;;0.00;0.00;;;12.50;99.90;;;;;;7404073;19;20088;-77
2023/05/14 04:32:47;;;;;;;0.05;0.05;;;12.60;99.90;;;;;;7403763;19;19914;-76
2023/05/14 04:35:16;;;;;;;0.00;0.00;;;12.50;99.90;;;;;;7403227;19;20343;-77
2023/05/14 04:37:44;;;;;;;0.00;0.00;;;12.50;99.90;;;;;;7405127;19;20219;-77
2023/05/14 04:40:15;;;;;;;0.00;0.00;;;12.60;99.90;;;;;;7403271;19;19990;-77
2023/05/14 04:42:44;;;;;;;0.08;0.08;;;12.60;99.90;;;;;;7404943;19;19919;-77
2023/05/14 04:45:15;;;;;;;0.00;0.00;;;12.60;99.90;;;;;;7403774;19;19943;-77
2023/05/14 04:47:48;;;;;;;0.00;0.00;;;12.70;99.90;;;;;;7404715;19;20268;-76
2023/05/14 04:50:17;;;;;;;0.10;0.10;;;12.70;99.90;;;;;;7404421;19;20320;-77
2023/05/14 04:52:46;;;;;;;0.00;0.00;;;12.60;99.90;;;;;;7401578;19;19911;-77
2023/05/14 04:55:15;;;;;;;0.00;0.00;;;12.70;99.90;;;;;;7404281;19;19925;-77
2023/05/14 04:57:44;;;;;;;0.00;0.00;;;12.70;99.90;;;;;;7402238;19;19923;-77
2023/05/14 05:00:14;;;;;;;0.00;0.00;;;12.70;99.90;;;;;;7403965;19;19931;-78
2023/05/14 05:02:47;;;;;;;0.00;0.00;;;12.90;99.90;;;;;;7402380;19;19914;-78
2023/05/14 05:05:15;;;;;;;1.55;1.17;;;12.90;99.90;;;;;;7403453;19;19932;-77
2023/05/14 05:07:44;;;;;;;0.00;0.00;;;12.90;99.90;;;;;;7402987;19;19932;-77
2023/05/14 05:10:13;;;;;;;0.00;0.00;;;12.90;99.90;;;;;;7404834;19;19935;-77
2023/05/14 05:12:43;;;;;;;0.00;0.00;;;12.90;99.90;;;;;;7401743;19;20681;-78
2023/05/14 05:15:12;;;;;;;0.03;0.03;;;13.00;99.90;;;;;;7403099;19;20316;-79
2023/05/14 05:17:41;;;;;;;0.03;0.03;;;12.90;99.90;;;;;;7401689;19;20326;-79
2023/05/14 05:20:14;;;;;;;0.60;0.13;;;12.80;99.90;;;;;;7401522;19;19919;-78
2023/05/14 05:22:43;;;;;;;0.00;0.00;;;12.80;99.90;;;;;;7403363;19;20062;-78
2023/05/14 05:25:12;;;;;;;0.10;0.10;;;13.00;99.90;;;;;;7402268;19;19986;-77
2023/05/14 05:27:41;;;;;;;0.50;0.40;;;12.80;99.90;;;;;;7401768;19;19947;-78
2023/05/14 05:30:11;;;;;;;0.00;0.00;;;13.10;99.90;;;;;;7402802;19;19918;-78
2023/05/14 05:32:40;;;;;;;0.00;0.00;;;13.00;99.90;;;;;;7403081;19;20264;-78
2023/05/14 05:35:10;;;;;;;0.10;0.10;;;13.10;99.90;;;;;;7401733;19;19922;-78
2023/05/14 05:37:41;;;;;;;0.52;0.47;;;13.00;99.90;;;;;;7404142;19;19937;-77
2023/05/14 05:40:12;;;;;;;0.00;0.00;;;13.00;99.90;;;;;;7402994;19;19933;-78
2023/05/14 05:42:41;;;;;;;0.00;0.00;;;13.20;99.90;;;;;;7402255;19;19939;-78
2023/05/14 05:45:11;;;;;;;0.15;0.15;;;13.20;99.90;;;;;;7401062;19;19978;-77
2023/05/14 05:47:40;;;;;;;0.05;0.05;;;13.10;99.90;;;;;;7403794;19;19932;-78
2023/05/14 05:50:11;;;;;;;0.00;0.00;;;13.10;99.90;;;;;;7401625;19;19953;-78
2023/05/14 05:52:42;;;;;;;0.00;0.00;;;13.00;99.90;;;;;;7400166;19;19912;-78
2023/05/14 05:55:11;;;;;;;;;;;13.10;99.90;;;;;;7403870;19;19946;-78
2023/05/14 05:57:40;;;;;;;0.60;0.30;;;13.10;99.90;;;;;;7399799;19;19962;-78
2023/05/14 06:00:14;;;;;;;0.00;0.00;;;13.10;99.90;;;;;;7402211;19;19918;-78
2023/05/14 06:02:44;;;;;;;0.43;0.43;;;13.20;99.90;;;;;;7399804;19;20332;-78
2023/05/14 06:05:13;;;;;;;0.00;0.00;;;13.20;99.90;;;;;;7402545;19;19977;-78
2023/05/14 06:07:44;;;;;;;0.00;0.00;;;13.20;99.90;;;;;;7400882;19;20307;-78
2023/05/14 06:10:13;;;;;;;0.00;0.00;;;13.20;99.90;;;;;;7403135;19;19982;-79
2023/05/14 06:12:42;;;;;;;2.75;0.30;;;13.20;99.90;;;;;;7398588;19;19939;-77
2023/05/14 06:15:12;;;;;;;0.00;0.00;;;13.20;99.90;;;;;;7402527;19;20002;-78
2023/05/14 06:17:41;;;;;;;0.20;0.20;;;13.30;99.90;;;;;;7401107;19;19917;-76
2023/05/14 06:20:11;;;;;;;0.88;0.88;;;13.30;99.90;;;;;;7399017;19;19918;-77
2023/05/14 06:22:40;;;;;;;0.00;0.00;;;13.30;99.90;;;;;;7400582;19;19971;-76
2023/05/14 06:25:13;;;;;;;0.00;0.00;;;13.30;99.90;;;;;;7399255;19;19915;-78
2023/05/14 06:27:42;;;;;;;0.10;0.10;;;13.40;99.90;;;;;;7402261;19;19910;-78
2023/05/14 06:30:12;;;;;;;0.00;0.00;;;13.50;99.90;;;;;;7406066;19;19915;-78
2023/05/14 06:32:41;;;;;;;0.10;0.10;;;13.50;99.90;;;;;;7407568;19;19918;-78
2023/05/14 06:35:11;;;;;;;0.10;0.10;;;13.40;99.90;;;;;;7407086;19;20345;-79
2023/05/14 06:37:40;;;;;;;0.00;0.00;;;13.60;99.90;;;;;;7409016;19;19989;-80
2023/05/14 06:40:14;;;;;;;0.22;0.22;;;13.60;99.90;;;;;;7406895;19;19926;-78
2023/05/14 06:42:43;;;;;;;0.00;0.00;;;13.70;99.90;;;;;;7407726;19;19974;-79
2023/05/14 06:45:13;;;;;;;0.00;0.00;;;13.70;99.90;;;;;;7407382;19;19922;-79
2023/05/14 06:47:42;;;;;;;0.65;0.65;;;13.80;99.90;;;;;;7408587;19;19974;-79
2023/05/14 06:50:12;;;;;;;0.00;0.00;;;14.00;99.90;;;;;;7407162;19;19910;-79
2023/05/14 06:52:42;;;;;;;0.00;0.00;;;14.00;99.90;;;;;;7406340;19;19922;-79
2023/05/14 06:55:14;;;;;;;0.13;0.13;;;14.00;99.90;;;;;;7406344;19;19933;-78
2023/05/14 06:57:43;;;;;;;0.00;0.00;;;14.10;99.90;;;;;;7404415;19;19915;-78
2023/05/14 07:00:13;;;;;;;0.00;0.00;;;14.20;99.90;;;;;;7406718;19;19946;-79
2023/05/14 07:02:42;;;;;;;0.00;0.00;;;14.40;99.90;;;;;;7405364;19;20273;-78
2023/05/14 07:05:12;;;;;;;0.00;0.00;;;14.40;99.90;;;;;;7407127;19;19925;-78
2023/05/14 07:07:41;;;;;;;0.10;0.10;;;14.40;99.90;;;;;;7405799;19;19915;-76
2023/05/14 07:10:13;;;;;;;0.00;0.00;;;14.70;99.90;;;;;;7406776;19;20358;-77
2023/05/14 07:12:42;;;;;;;0.10;0.10;;;14.50;99.90;;;;;;7405083;19;19922;-78
2023/05/14 07:15:12;;;;;;;0.10;0.10;;;14.70;99.90;;;;;;7404891;19;19919;-78
2023/05/14 07:17:41;;;;;;;0.00;0.00;;;14.70;99.90;;;;;;7405560;19;20328;-78
2023/05/14 07:20:11;;;;;;;0.00;0.00;;;14.60;99.90;;;;;;7407411;19;19998;-77
2023/05/14 07:22:40;;;;;;;2.53;0.88;;;14.80;99.90;;;;;;7405804;19;19922;-78
2023/05/14 07:25:12;;;;;;;0.08;0.08;;;14.70;99.90;;;;;;7405600;19;19982;-78
2023/05/14 07:27:41;;;;;;;0.30;0.30;;;14.90;99.90;;;;;;7404242;19;19921;-78
2023/05/14 07:30:11;;;;;;;0.00;0.00;;;14.90;99.90;;;;;;7404550;19;19921;-77
2023/05/14 07:32:40;;;;;;;0.00;0.00;;;14.80;99.90;;;;;;7406142;19;19907;-77
2023/05/14 07:35:10;;;;;;;0.00;0.00;;;14.90;99.90;;;;;;7402662;19;19918;-78
2023/05/14 07:37:39;;;;;;;0.00;0.00;;;14.90;99.90;;;;;;7405748;19;19919;-78
2023/05/14 07:40:10;;;;;;;0.00;0.00;;;14.80;99.90;;;;;;7402882;19;20350;-78
2023/05/14 07:42:41;;;;;;;0.00;0.00;;;14.90;99.90;;;;;;7406198;19;21178;-78
2023/05/14 07:45:11;;;;;;;0.03;0.03;;;15.00;99.90;;;;;;7404631;19;19922;-77
2023/05/14 07:47:41;;;;;;;0.00;0.00;;;15.20;99.90;;;;;;7406294;19;19929;-78
2023/05/14 07:50:11;;;;;;;0.10;0.10;;;15.00;99.90;;;;;;7404867;19;19918;-77
2023/05/14 07:52:40;;;;;;;0.00;0.00;;;15.10;99.90;;;;;;7403774;19;19921;-79
2023/05/14 07:55:10;;;;;;;0.00;0.00;;;15.20;99.90;;;;;;7403148;19;20371;-77
2023/05/14 07:57:42;;;;;;;0.10;0.10;;;15.40;99.90;;;;;;7403505;19;19929;-77
2023/05/14 08:00:11;;;;;;;0.52;0.52;;;15.20;99.90;;;;;;7405932;19;19921;-78
2023/05/14 08:02:41;;;;;;;0.47;0.47;;;15.20;99.90;;;;;;7404795;19;19919;-78
2023/05/14 08:05:10;;;;;;;0.00;0.00;;;15.30;99.90;;;;;;7405142;19;19950;-77
2023/05/14 08:07:40;;;;;;;0.10;0.10;;;15.20;99.90;;;;;;7404160;19;19914;-78
2023/05/14 08:10:10;;;;;;;0.00;0.00;;;15.20;99.90;;;;;;7405894;19;20251;-78
2023/05/14 08:12:42;;;;;;;0.05;0.05;;;15.40;99.90;;;;;;7401454;19;19939;-77
2023/05/14 08:15:12;;;;;;;0.00;0.00;;;15.50;99.90;;;;;;7403518;19;20281;-78
2023/05/14 08:17:41;;;;;;;0.10;0.10;;;15.60;99.90;;;;;;7404352;19;19922;-78
2023/05/14 08:20:11;;;;;;;1.23;0.88;;;15.50;99.90;;;;;;7404747;19;19922;-78
2023/05/14 08:22:40;;;;;;;0.00;0.00;;;15.70;99.90;;;;;;7404015;19;20361;-78
2023/05/14 08:25:10;;;;;;;0.00;0.00;;;15.50;99.90;;;;;;7403157;19;20267;-79
2023/05/14 08:27:41;;;;;;;0.08;0.08;;;15.70;99.90;;;;;;7403195;19;20596;-77
2023/05/14 08:30:11;;;;;;;0.00;0.00;;;15.70;99.90;;;;;;7402884;19;19982;-77
2023/05/14 08:32:41;;;;;;;0.08;0.08;;;15.60;99.90;;;;;;7404581;19;19919;-78
2023/05/14 08:35:10;;;;;;;0.13;0.10;;;15.70;99.90;;;;;;7401328;19;19953;-78
2023/05/14 08:37:39;;;;;;;0.10;0.10;;;15.80;99.90;;;;;;7405433;19;19933;-77
2023/05/14 08:40:10;;;;;;;0.00;0.00;;;15.90;99.90;;;;;;7403030;19;19938;-78
2023/05/14 08:42:43;;;;;;;0.35;0.35;;;16.00;99.90;;;;;;7404547;19;19937;-77
2023/05/14 08:45:18;;;;;;;0.00;0.00;;;16.10;99.90;;;;;;7403803;19;19915;-77
2023/05/14 08:47:50;;;;;;;0.00;0.00;;;16.20;99.90;;;;;;7402503;19;19994;-76
2023/05/14 08:50:21;;;;;;;0.30;0.30;;;16.40;99.90;;;;;;7403382;19;19925;-77
2023/05/14 08:52:50;;;;;;;0.00;0.00;;;16.40;99.90;;;;;;7402574;19;19994;-77
2023/05/14 08:55:19;;;;;;;0.00;0.00;;;16.40;99.90;;;;;;7402466;19;19915;-77
2023/05/14 08:57:50;;;;;;;0.00;0.00;;;16.50;99.90;;;;;;7401692;19;19919;-77
2023/05/14 09:00:20;;;;;;;0.28;0.28;;;16.60;99.90;;;;;;7404017;19;19939;-77
2023/05/14 09:02:50;;;;;;;0.00;0.00;;;16.70;99.90;;;;;;7402298;19;19922;-78
2023/05/14 09:05:20;;;;;;;0.00;0.00;;;16.70;99.90;;;;;;7404278;19;19925;-78
2023/05/14 09:07:50;;;;;;;0.00;0.00;;;16.80;99.90;;;;;;7403276;19;19921;-77
2023/05/14 09:10:19;;;;;;;0.05;0.03;;;17.10;99.90;;;;;;7403521;19;19990;-77
2023/05/14 09:12:51;;;;;;;0.00;0.00;;;17.00;99.90;;;;;;7401018;19;19938;-77
2023/05/14 09:15:20;;;;;;;0.20;0.13;;;17.10;99.90;;;;;;7399389;19;19919;-78
2023/05/14 09:17:49;;;;;;;0.10;0.10;;;17.00;99.90;;;;;;7403280;19;19919;-78
2023/05/14 09:20:18;;;;;;;0.10;0.10;;;17.20;99.90;;;;;;7401428;19;19974;-78
2023/05/14 09:22:47;;;;;;;0.00;0.00;;;17.40;99.90;;;;;;7402662;19;19922;-77
2023/05/14 09:25:16;;;;;;;0.05;0.05;;;17.60;99.90;;;;;;7401144;19;19918;-78
2023/05/14 09:27:53;;;;;;;1.55;0.85;;;17.50;99.90;;;;;;7400422;19;20633;-78
2023/05/14 09:30:22;;;;;;;1.23;0.20;;;17.60;99.90;;;;;;7401848;19;20285;-77
2023/05/14 09:32:51;;;;;;;0.28;0.28;;;17.70;99.90;;;;;;7402904;19;19923;-78
2023/05/14 09:35:21;;;;;;;0.00;0.00;;;17.80;99.90;;;;;;7400579;19;20325;-77
2023/05/14 09:37:52;;;;;;;0.10;0.10;;;17.80;99.90;;;;;;7403823;19;19921;-77
2023/05/14 09:40:23;;;;;;;0.57;0.57;;;18.00;99.90;;;;;;7401855;19;19922;-79
2023/05/14 09:42:55;;;;;;;0.47;0.10;;;17.80;99.90;;;;;;7403699;19;19930;-79
2023/05/14 09:45:24;;;;;;;0.10;0.10;;;18.20;99.90;;;;;;7403483;19;19921;-78
2023/05/14 09:47:52;;;;;;;0.05;0.05;;;18.20;99.90;;;;;;7400992;19;20325;-79
2023/05/14 09:50:21;;;;;;;0.00;0.00;;;18.30;99.90;;;;;;7402117;19;19917;-78
2023/05/14 09:52:50;;;;;;;0.03;0.00;;;18.20;99.90;;;;;;7400725;19;20319;-79
2023/05/14 09:55:19;;;;;;;0.10;0.10;;;18.40;99.90;;;;;;7401017;19;19919;-78
2023/05/14 09:57:48;;;;;;;0.00;0.00;;;18.40;99.90;;;;;;7398865;19;19926;-78
2023/05/14 10:00:21;;;;;;;0.10;0.10;;;18.40;99.90;;;;;;7402103;19;19922;-79
2023/05/14 10:02:52;;;;;;;0.13;0.10;;;18.40;99.90;;;;;;7404602;19;19921;-78
2023/05/14 10:05:22;;;;;;;0.20;0.20;;;18.20;99.90;;;;;;7409095;19;20249;-79
2023/05/14 10:07:55;;;;;;;0.28;0.28;;;18.50;99.90;;;;;;7407866;19;19915;-79
2023/05/14 10:10:28;;;;;;;0.10;0.10;;;18.50;99.90;;;;;;7408355;19;19930;-75
2023/05/14 10:13:00;;;;;;;3.72;0.40;;;18.40;99.90;;;;;;7405407;19;19921;-77
2023/05/14 10:15:39;;;;;;;0.35;0.30;;;18.60;99.90;;;;;;7404707;19;19990;-78
2023/05/14 10:18:18;;;;;;;0.10;0.10;;;18.60;99.90;;;;;;7408193;19;19922;-78
2023/05/14 10:20:50;;;;;;;0.43;0.40;;;18.70;99.90;;;;;;7407842;19;20391;-78
2023/05/14 10:23:20;;;;;;;0.00;0.00;;;18.80;99.90;;;;;;7406049;19;19924;-78
2023/05/14 10:25:49;;;;;;;0.40;0.40;;;18.70;99.90;;;;;;7407222;19;19937;-79
2023/05/14 10:28:18;;;;;;;0.15;0.15;;;18.90;99.90;;;;;;7403593;19;19926;-78
2023/05/14 10:30:51;;;;;;;0.10;0.10;;;18.90;99.90;;;;;;7407422;19;19914;-78
2023/05/14 10:33:20;;;;;;;0.10;0.03;;;19.00;99.90;;;;;;7406313;19;20256;-78
2023/05/14 10:35:59;;;;;;;0.00;0.00;;;18.90;99.90;;;;;;7404646;19;20259;-78
2023/05/14 10:38:28;;;;;;;0.00;0.00;;;19.20;99.90;;;;;;7405604;19;20383;-78
2023/05/14 10:41:05;;;;;;;0.13;0.13;;;19.10;99.90;;;;;;7407149;19;20287;-79
2023/05/14 10:43:43;;;;;;;0.55;0.28;;;19.30;99.90;;;;;;7404571;19;19919;-78
2023/05/14 10:46:16;;;;;;;0.20;0.13;;;19.40;99.90;;;;;;7404931;19;20836;-79
2023/05/14 10:48:45;;;;;;;0.05;0.05;;;19.20;99.90;;;;;;7406597;19;19971;-79
2023/05/14 10:51:16;;;;;;;0.70;0.70;;;19.40;99.90;;;;;;7405140;19;20344;-79
2023/05/14 10:53:46;;;;;;;0.03;0.03;;;19.50;99.90;;;;;;7407993;19;19928;-79
2023/05/14 10:56:16;;;;;;;0.93;0.10;;;19.70;99.90;;;;;;7402797;19;19986;-79
2023/05/14 10:58:46;;;;;;;0.00;0.00;;;19.70;99.90;;;;;;7406780;19;19930;-78
2023/05/14 11:01:17;;;;;;;0.13;0.05;;;19.70;99.90;;;;;;7405534;19;19922;-79
2023/05/14 11:03:47;;;;;;;;;;;19.70;99.90;;;;;;7409939;19;20458;-79
2023/05/14 11:06:17;;;;;;;0.00;0.00;;;19.70;99.90;;;;;;7406073;19;19922;-79
2023/05/14 11:08:47;;;;;;;0.00;0.00;;;19.70;99.90;;;;;;7407634;19;20014;-79
2023/05/14 11:11:17;;;;;;;0.10;0.10;;;19.70;99.90;;;;;;7405736;19;20273;-79
2023/05/14 11:13:47;;;;;;;0.45;0.45;;;19.90;99.90;;;;;;7399735;19;19937;-79
2023/05/14 11:16:21;;;;;;;1.10;0.95;;;19.80;99.90;;;;;;7403463;19;20248;-79
2023/05/14 11:18:54;;;;;;;0.00;0.00;;;19.80;99.90;;;;;;7404846;19;19922;-79
2023/05/14 11:21:24;;;;;;;0.10;0.05;;;19.70;99.90;;;;;;7404806;19;19950;-79
2023/05/14 11:23:53;;;;;;;0.75;0.75;;;19.80;99.90;;;;;;7406509;19;20361;-78
2023/05/14 11:26:22;;;;;;;1.13;0.28;;;19.70;99.90;;;;;;7405548;19;19923;-79
2023/05/14 11:28:51;;;;;;;1.10;1.00;;;19.70;99.90;;;;;;7404358;19;20544;-79
2023/05/14 11:31:24;;;;;;;0.47;0.47;;;19.80;99.90;;;;;;7406695;19;19919;-78
2023/05/14 11:33:54;;;;;;;0.32;0.20;;;19.70;99.90;;;;;;7405472;19;19926;-79
2023/05/14 11:36:23;;;;;;;0.17;0.17;;;19.90;99.90;;;;;;7404401;19;20379;-79
2023/05/14 11:38:52;;;;;;;0.47;0.47;;;20.10;99.90;;;;;;7404709;19;19936;-79
2023/05/14 11:41:22;;;;;;;0.28;0.22;;;20.30;99.90;;;;;;7403555;19;19925;-79
2023/05/14 11:43:51;;;;;;;0.00;0.00;;;20.40;99.90;;;;;;7402726;19;19939;-79
2023/05/14 11:46:24;;;;;;;0.00;0.00;;;20.50;99.90;;;;;;7403500;19;19919;-79
2023/05/14 11:48:53;;;;;;;0.30;0.13;;;20.70;99.90;;;;;;7405180;19;19918;-79
2023/05/14 11:51:23;;;;;;;0.38;0.30;;;20.90;99.90;;;;;;7403475;19;20400;-79
2023/05/14 11:53:52;;;;;;;0.73;0.20;;;21.30;99.90;;;;;;7405091;19;19974;-80
2023/05/14 11:56:22;;;;;;;0.00;0.00;;;21.30;99.90;;;;;;7401190;19;19993;-80
2023/05/14 11:58:56;;;;;;;0.28;0.28;;;21.40;99.90;;;;;;7405592;19;19982;-80
2023/05/14 12:01:37;;;;;;;0.00;0.00;;;21.40;99.90;;;;;;7405837;19;19939;-80
2023/05/14 12:04:06;;;;;;;0.00;0.00;;;21.60;99.90;;;;;;7403008;19;19918;-80
2023/05/14 12:06:35;;;;;;;0.45;0.45;;;21.60;99.90;;;;;;7404748;19;19934;-78
2023/05/14 12:09:07;;;;;;;0.40;0.38;;;21.30;99.90;;;;;;7403431;19;19918;-79
2023/05/14 12:11:38;;;;;;;0.03;0.03;;;21.40;99.90;;;;;;7405336;19;20328;-79
2023/05/14 12:14:13;;;;;;;0.57;0.57;;;21.40;99.90;;;;;;7402032;19;20268;-79
2023/05/14 12:16:46;;;;;;;0.38;0.30;;;21.50;99.90;;;;;;7403384;19;19911;-80
2023/05/14 12:19:17;;;;;;;0.10;0.10;;;21.50;99.90;;;;;;7404220;19;19952;-80
2023/05/14 12:21:49;;;;;;;0.20;0.15;;;21.40;99.90;;;;;;7405188;19;19922;-79
2023/05/14 12:24:20;;;;;;;0.00;0.00;;;21.50;99.90;;;;;;7404020;19;20291;-79
2023/05/14 12:26:51;;;;;;;0.20;0.20;;;21.30;99.90;;;;;;7402148;19;19914;-78
2023/05/14 12:29:21;;;;;;;0.08;0.08;;;21.30;99.90;;;;;;7404440;19;19915;-78
2023/05/14 12:31:53;;;;;;;0.00;0.00;;;21.50;99.90;;;;;;7403532;19;20447;-77
2023/05/14 12:34:21;;;;;;;;;;;21.50;99.90;;;;;;7407650;19;19949;-79
2023/05/14 12:36:51;;;;;;;0.65;0.38;;;21.60;99.90;;;;;;7401999;19;20333;-79
2023/05/14 12:39:19;;;;;;;0.22;0.22;;;21.60;99.90;;;;;;7405679;19;19915;-77
2023/05/14 12:41:48;;;;;;;0.15;0.15;;;21.70;99.90;;;;;;7403615;19;19927;-78
2023/05/14 12:44:17;;;;;;;0.00;0.00;;;21.60;99.90;;;;;;7402425;19;19910;-78
2023/05/14 12:46:46;;;;;;;0.08;0.05;;;21.80;99.90;;;;;;7403388;19;19921;-78
2023/05/14 12:49:18;;;;;;;0.10;0.10;;;21.80;99.90;;;;;;7404276;19;20479;-78
2023/05/14 12:51:48;;;;;;;0.00;0.00;;;21.80;99.90;;;;;;7400501;19;19926;-79
2023/05/14 12:54:17;;;;;;;0.20;0.17;;;19.90;99.90;;;;;;7392272;19;19936;-80
2023/05/14 12:56:46;;;;;;;0.00;0.00;;;21.90;99.90;;;;;;7386890;19;20524;-83
2023/05/14 12:59:15;;;;;;;0.00;0.00;;;22.20;99.90;;;;;;7391762;19;19927;-85
2023/05/14 13:01:44;;;;;;;0.00;0.00;;;22.00;99.90;;;;;;7401001;19;19934;-68